Holliday, MO (65258)

3:41 PM CDT on July 29, 2014 (GMT -0500)
KMOMOBER2 Elev 853 ft | 39.46 °N, 92.40 °W | Change Station

Current weather conditions updated 48 seconds ago

Mostly Cloudy
Mostly Cloudy
76.0 °F
Feels Like 78 °F
N
1.0
Wind Variable Wind from WNW
Gusts 8.0 mph

Today is forecast to be nearly the same temperature as yesterday.

Today
High -- | Low -- °F
--% Chance of Precip.
Yesterday
High -- | Low -- °F
Precip. -- in
6:05 AM 8:24 PM
Waxing Crescent, 8% visible
Pressure 30.13 in
Visibility 10.0 miles
Clouds Mostly Cloudy 5000 ft
Mostly Cloudy 6500 ft
Mostly Cloudy 7500 ft
Heat Index 78 °F
Dew Point 56 °F
Humidity 50%
Rainfall 0.00 in
Snow Depth Not available.
UV 4 out of 12
Pollen 6.40 out of 12
Air Quality Not available.
Flu Activity Not available.
METAR KHAE 292035Z AUTO 32008KT 273V343 10SM BKN050 BKN065 BKN075 26/10 A3013 RMK AO2

More Conditions Fewer Conditions

Pressure 30.13 in
Visibility 10.0 miles
Clouds Mostly Cloudy 5000 ft
Mostly Cloudy 6500 ft
Mostly Cloudy 7500 ft
Heat Index 78 °F
Dew Point 56 °F
Humidity 50%
Rainfall 0.00 in
Snow Depth Not available.
UV 4 out of 12
Pollen 6.40 out of 12
Air Quality Not available.
Flu Activity Not available.
METAR KHAE 292035Z AUTO 32008KT 273V343 10SM BKN050 BKN065 BKN075 26/10 A3013 RMK AO2

More Conditions Fewer Conditions

10-Day Weather Forecast

Almanac

Astronomy

Jul. 29, 2014 Rise Set
Actual Time 6:05 AM CDT 8:24 PM CDT
Civil Twilight 5:35 AM CDT 8:54 PM CDT
Nautical Twilight 4:57 AM CDT 9:31 PM CDT
Astronomical Twilight 4:16 AM CDT 10:12 PM CDT
Moon 8:41 AM CDT 9:37 PM CDT
Length of Visible Light 15h 19m
Length of Day
14h 18m
Tomorrow will be 1m 52s shorter.
Waxing Crescent, 8% of the Moon is Illuminated
Today
Waxing Crescent
Aug 3
First Quarter
Aug 10
Full
Aug 17
Last Quarter
Aug 25
New

Today's Extremes

State Highs State Lows

Community

WunderPhotos

Upload Photos

1,738,859 photos uploaded!

Nearby

Snow Depth

Station Depth Elevation
No new snow has been reported.

Earthquake Activity

City Distance Mag. Time & Date
No recent earthquake activity has been reported nearby.
Minimum magnitude displayed is 2.5.

Coastal Water Temperatures

Place Temperature
No Stations Reporting

Nearby Weather Stations

Station Location Temp. Heat Index Dew Point Humidity Wind Precip. Elev Updated Type
Moberly, MO 76.0 °F 78 °F 56 °F 50% WNW  at  1.0 mph 0.00 in / hr 853 ft 3:40 PM CDT Normal
East 24, Moberly, MO 77.9 °F 79 °F 54 °F 44% North  at  0.0 mph 0.00 in / hr 856 ft 3:41 PM CDT Rapid Fire
NonFedAWOS MOBERLY , Moberly, MO 79 °F 79 °F 54 °F 42% NNW  at  6 mph 0.00 in / hr 867 ft 2:59 PM CDT MADIS
Rolling Hills, Centralia, MO 79.9 °F 82 °F 65 °F 61% NNW  at  2.9 mph 0.00 in / hr 863 ft 3:41 PM CDT Rapid Fire

Show More Stations Show Fewer Stations